createdAt,value
2022-09-01T00:00:04.288Z,101886.81
2022-09-01T00:02:35.024Z,101893.81
2022-09-01T00:05:04.741Z,101893.81
2022-09-01T00:07:35.461Z,101890.38
2022-09-01T00:10:08.375Z,101895.66
2022-09-01T00:12:38.251Z,101886.06
2022-09-01T00:15:09.523Z,101891.31
2022-09-01T00:17:39.640Z,101894.84
2022-09-01T00:20:09.474Z,101894.81
2022-09-01T00:22:38.067Z,101893.09
2022-09-01T00:25:08.095Z,101891.31
2022-09-01T00:27:36.757Z,101894.75
2022-09-01T00:30:07.079Z,101888.50
2022-09-01T00:32:35.671Z,101890.28
2022-09-01T00:35:06.824Z,101889.47
2022-09-01T00:37:35.421Z,101887.75
2022-09-01T00:40:04.746Z,101890.28
2022-09-01T00:42:33.336Z,101884.94
2022-09-01T00:45:01.931Z,101886.72
2022-09-01T00:47:31.458Z,101885.75
2022-09-01T00:50:00.526Z,101882.22
2022-09-01T00:52:33.727Z,101881.31
2022-09-01T00:55:08.628Z,101882.19
2022-09-01T00:57:37.608Z,101887.38
2022-09-01T01:00:11.724Z,101888.19
2022-09-01T01:02:42.552Z,101880.31
2022-09-01T01:05:14.269Z,101881.13
2022-09-01T01:07:47.655Z,101880.19
2022-09-01T01:10:19.790Z,101881.00
2022-09-01T01:12:49.817Z,101874.03
2022-09-01T01:15:20.109Z,101882.78
2022-09-01T01:17:48.783Z,101880.94
2022-09-01T01:20:37.240Z,101877.41
2022-09-01T01:23:16.492Z,101878.22
2022-09-01T01:25:50.568Z,101873.78
2022-09-01T01:28:22.375Z,101879.84
2022-09-01T01:30:54.420Z,101880.72
2022-09-01T01:33:26.017Z,101881.47
2022-09-01T01:35:57.755Z,101880.53
2022-09-01T01:38:27.574Z,101879.66
2022-09-01T01:40:57.743Z,101886.59
2022-09-01T01:43:27.679Z,101880.34
2022-09-01T01:46:02.644Z,101882.06
2022-09-01T01:48:34.754Z,101876.72
2022-09-01T01:51:05.882Z,101875.00
2022-09-01T01:53:35.037Z,101873.19
2022-09-01T01:56:06.318Z,101876.69
2022-09-01T01:58:35.888Z,101874.00
2022-09-01T02:01:04.727Z,101873.13
2022-09-01T02:03:38.599Z,101866.09
2022-09-01T02:06:09.846Z,101873.91
2022-09-01T02:08:39.749Z,101872.13
2022-09-01T02:11:11.091Z,101875.59
2022-09-01T02:13:40.226Z,101879.13
2022-09-01T02:16:13.025Z,101874.69
2022-09-01T02:18:48.291Z,101872.88
2022-09-01T02:21:20.407Z,101879.78
2022-09-01T02:23:51.091Z,101882.38
2022-09-01T02:26:22.929Z,101880.56
2022-09-01T02:28:55.331Z,101874.41
2022-09-01T02:31:26.157Z,101876.97
2022-09-01T02:33:55.386Z,101883.03
2022-09-01T02:36:25.378Z,101864.53
2022-09-01T02:38:56.654Z,101868.88
2022-09-01T02:41:29.303Z,101863.59
2022-09-01T02:44:00.294Z,101870.50
2022-09-01T02:46:29.772Z,101873.88
2022-09-01T02:49:00.770Z,101871.09
2022-09-01T02:51:29.570Z,101865.75
2022-09-01T02:53:58.580Z,101862.19
2022-09-01T02:56:28.919Z,101863.03
2022-09-01T02:58:57.691Z,101864.63
2022-09-01T03:01:30.253Z,101868.84
2022-09-01T03:04:01.725Z,101860.84
2022-09-01T03:06:34.579Z,101873.72
2022-09-01T03:09:06.288Z,101869.13
2022-09-01T03:11:39.388Z,101861.97
2022-09-01T03:14:09.458Z,101867.03
2022-09-01T03:16:39.356Z,101861.66
2022-09-01T03:19:09.776Z,101866.78
2022-09-01T03:21:40.978Z,101858.75
2022-09-01T03:24:12.461Z,101855.16
2022-09-01T03:26:44.058Z,101854.16
2022-09-01T03:29:12.888Z,101857.63
2022-09-01T03:31:42.883Z,101858.41
2022-09-01T03:34:12.643Z,101860.13
2022-09-01T03:36:50.312Z,101856.59
2022-09-01T03:39:19.756Z,101856.47
2022-09-01T03:41:49.832Z,101860.75
2022-09-01T03:44:18.463Z,101856.19
2022-09-01T03:46:47.165Z,101856.94
2022-09-01T03:49:17.011Z,101856.94
2022-09-01T03:51:46.200Z,101862.16
2022-09-01T03:54:15.088Z,101862.06
2022-09-01T03:56:45.739Z,101868.09
2022-09-01T03:59:17.546Z,101856.53
2022-09-01T04:01:46.969Z,101856.47
2022-09-01T04:04:16.007Z,101855.50
2022-09-01T04:06:46.393Z,101857.09
2022-09-01T04:09:15.531Z,101855.25
2022-09-01T04:11:46.410Z,101854.28
2022-09-01T04:14:16.896Z,101858.44
2022-09-01T04:17:11.571Z,101858.28
2022-09-01T04:19:40.246Z,101853.78
2022-09-01T04:22:13.514Z,101851.81
2022-09-01T04:24:46.326Z,101855.09
2022-09-01T04:27:18.205Z,101849.69
2022-09-01T04:29:48.629Z,101853.88
2022-09-01T04:32:17.373Z,101851.25
2022-09-01T04:34:46.029Z,101858.31
2022-09-01T04:37:18.278Z,101863.53
2022-09-01T04:39:55.809Z,101856.47
2022-09-01T04:42:27.273Z,101863.34
2022-09-01T04:45:00.024Z,101862.38
2022-09-01T04:47:31.668Z,101866.72
2022-09-01T04:50:13.078Z,101860.66
2022-09-01T04:52:43.181Z,101866.72
2022-09-01T04:55:17.812Z,101864.13
2022-09-01T04:57:49.604Z,101863.16
2022-09-01T05:00:25.434Z,101860.47
2022-09-01T05:02:57.497Z,101865.72
2022-09-01T05:05:27.312Z,101865.72
2022-09-01T05:07:56.795Z,101864.84
2022-09-01T05:10:30.121Z,101864.06
2022-09-01T05:12:58.936Z,101870.16
2022-09-01T05:15:31.038Z,101868.50
2022-09-01T05:17:59.983Z,101870.25
2022-09-01T05:20:30.233Z,101869.44
2022-09-01T05:22:58.841Z,101857.19
2022-09-01T05:25:27.520Z,101860.72
2022-09-01T05:27:57.491Z,101866.94
2022-09-01T05:30:28.724Z,101862.69
2022-09-01T05:32:58.757Z,101854.06
2022-09-01T05:35:32.899Z,101865.44
2022-09-01T05:38:02.574Z,101860.19
2022-09-01T05:40:32.572Z,101865.53
2022-09-01T05:43:01.252Z,101866.47
2022-09-01T05:45:44.776Z,101869.19
2022-09-01T05:48:21.880Z,101871.94
2022-09-01T05:50:52.781Z,101878.16
2022-09-01T05:53:21.971Z,101872.13
2022-09-01T05:55:50.826Z,101878.28
2022-09-01T05:58:20.306Z,101880.03
2022-09-01T06:00:53.782Z,101876.69
2022-09-01T06:03:25.002Z,101876.75
2022-09-01T06:05:54.641Z,101875.19
2022-09-01T06:08:29.036Z,101871.78
2022-09-01T06:10:57.686Z,101879.81
2022-09-01T06:13:27.642Z,101880.84
2022-09-01T06:15:58.431Z,101881.81
2022-09-01T06:18:28.916Z,101876.78
2022-09-01T06:20:57.526Z,101879.63
2022-09-01T06:23:26.146Z,101882.38
2022-09-01T06:25:55.471Z,101880.84
2022-09-01T06:28:24.135Z,101881.06
2022-09-01T06:30:53.247Z,101882.16
2022-09-01T06:33:25.276Z,101880.53
2022-09-01T06:35:55.959Z,101882.44
2022-09-01T06:38:27.158Z,101879.97
2022-09-01T06:41:01.781Z,101884.56
2022-09-01T06:43:30.900Z,101886.53
2022-09-01T06:46:03.184Z,101892.91
2022-09-01T06:48:31.976Z,101886.97
2022-09-01T06:51:21.000Z,101895.84
2022-09-01T06:53:56.652Z,101892.44
2022-09-01T06:56:30.986Z,101889.16
2022-09-01T06:59:04.250Z,101892.81
2022-09-01T07:01:33.804Z,101890.34
2022-09-01T07:04:02.923Z,101893.03
2022-09-01T07:09:38.503Z,101885.50
2022-09-01T07:17:51.538Z,101897.44
2022-09-01T07:20:24.439Z,101894.09
2022-09-01T07:23:04.397Z,101894.28
2022-09-01T07:26:00.979Z,101894.41
2022-09-01T07:28:37.678Z,101898.09
2022-09-01T07:39:50.162Z,101894.47
2022-09-01T07:42:56.129Z,101894.38
2022-09-01T07:45:28.322Z,101897.34
2022-09-01T07:48:00.121Z,101899.19
2022-09-01T07:50:41.412Z,101890.50
2022-09-01T07:53:22.468Z,101900.22
2022-09-01T07:55:54.447Z,101895.06
2022-09-01T07:58:26.814Z,101895.94
2022-09-01T08:01:02.883Z,101904.91
2022-09-01T08:03:32.154Z,101898.91
2022-09-01T08:06:06.715Z,101892.88
2022-09-01T08:08:36.723Z,101907.03
2022-09-01T08:11:07.727Z,101908.03
2022-09-01T08:13:41.715Z,101902.84
2022-09-01T08:16:18.918Z,101902.84
2022-09-01T08:18:49.565Z,101895.97
2022-09-01T08:21:22.256Z,101901.34
2022-09-01T08:23:51.638Z,101907.53
2022-09-01T08:26:24.120Z,101904.13
2022-09-01T08:28:56.219Z,101894.59
2022-09-01T08:31:30.763Z,101895.59
2022-09-01T08:34:00.252Z,101895.66
2022-09-01T08:36:29.042Z,101891.38
2022-09-01T08:38:57.644Z,101893.22
2022-09-01T08:41:47.029Z,101903.88
2022-09-01T08:44:29.398Z,101895.19
2022-09-01T08:47:02.915Z,101889.97
2022-09-01T08:49:42.806Z,101893.69
2022-09-01T08:52:20.169Z,101890.25
2022-09-01T08:54:51.869Z,101896.47
2022-09-01T08:57:25.004Z,101897.41
2022-09-01T08:59:54.795Z,101891.31
2022-09-01T09:02:34.465Z,101894.03
2022-09-01T09:05:15.915Z,101895.91
2022-09-01T09:08:10.580Z,101888.16
2022-09-01T09:10:49.314Z,101886.53
2022-09-01T09:13:25.833Z,101891.00
2022-09-01T09:16:07.765Z,101889.28
2022-09-01T09:18:54.745Z,101892.00
2022-09-01T09:21:30.275Z,101888.50
2022-09-01T09:24:08.141Z,101886.75
2022-09-01T09:26:44.758Z,101889.41
2022-09-01T09:29:14.893Z,101877.22
2022-09-01T09:31:49.977Z,101872.06
2022-09-01T09:34:33.351Z,101881.78
2022-09-01T09:37:25.349Z,101875.03
2022-09-01T09:40:16.018Z,101875.97
2022-09-01T09:43:03.989Z,101882.16
2022-09-01T09:45:36.924Z,101878.66
2022-09-01T09:48:11.861Z,101875.25
2022-09-01T09:50:43.269Z,101873.53
2022-09-01T09:53:18.253Z,101867.50
2022-09-01T09:55:58.312Z,101863.22
2022-09-01T09:58:31.236Z,101867.72
2022-09-01T10:01:17.659Z,101866.88
2022-09-01T10:03:50.416Z,101864.31
2022-09-01T10:06:33.071Z,101859.13
2022-09-01T10:09:03.723Z,101861.78
2022-09-01T10:11:40.837Z,101865.34
2022-09-01T10:14:22.932Z,101867.16
2022-09-01T10:17:10.382Z,101869.78
2022-09-01T10:19:42.100Z,101867.16
2022-09-01T10:22:11.535Z,101867.16
2022-09-01T10:24:44.705Z,101868.06
2022-09-01T10:27:25.732Z,101862.88
2022-09-01T10:30:18.373Z,101855.84
2022-09-01T10:32:55.673Z,101865.63
2022-09-01T10:35:28.566Z,101861.31
2022-09-01T10:37:59.560Z,101865.75
2022-09-01T10:40:43.812Z,101859.63
2022-09-01T10:43:37.961Z,101856.09
2022-09-01T10:46:44.316Z,101860.44
2022-09-01T10:49:51.521Z,101860.47
2022-09-01T10:52:57.318Z,101866.59
2022-09-01T10:55:48.192Z,101858.66
2022-09-01T11:05:19.091Z,101842.63
2022-09-01T11:08:00.443Z,101845.91
2022-09-01T11:10:50.390Z,101849.91
2022-09-01T11:13:37.774Z,101854.16
2022-09-01T11:16:47.752Z,101847.22
2022-09-01T11:19:37.608Z,101846.19
2022-09-01T11:22:26.741Z,101843.78
2022-09-01T11:25:40.893Z,101844.97
2022-09-01T11:28:41.650Z,101850.44
2022-09-01T11:31:27.309Z,101852.38
2022-09-01T11:34:21.178Z,101852.47
2022-09-01T11:36:58.970Z,101855.13
2022-09-01T11:39:40.881Z,101844.38
2022-09-01T11:42:19.073Z,101841.66
2022-09-01T11:44:53.069Z,101842.50
2022-09-01T11:47:26.848Z,101838.13
2022-09-01T11:49:59.712Z,101843.56
2022-09-01T11:52:31.941Z,101842.72
2022-09-01T11:55:02.068Z,101848.06
2022-09-01T11:57:33.424Z,101844.56
2022-09-01T12:00:04.981Z,101841.94
2022-09-01T12:02:37.437Z,101839.31
2022-09-01T12:05:26.738Z,101839.31
2022-09-01T12:07:55.805Z,101845.50
2022-09-01T12:10:33.736Z,101838.41
2022-09-01T12:13:07.999Z,101844.59
2022-09-01T12:16:00.604Z,101837.53
2022-09-01T12:18:32.965Z,101834.00
2022-09-01T12:21:03.491Z,101829.56
2022-09-01T12:23:34.982Z,101839.25
2022-09-01T12:26:08.194Z,101838.41
2022-09-01T12:28:41.835Z,101839.28
2022-09-01T12:31:18.666Z,101837.53
2022-09-01T12:33:49.527Z,101835.75
2022-09-01T12:36:23.854Z,101834.84
2022-09-01T12:38:53.703Z,101833.94
2022-09-01T12:41:32.488Z,101832.16
2022-09-01T12:44:29.976Z,101833.91
2022-09-01T12:47:01.538Z,101832.16
2022-09-01T12:49:50.018Z,101830.38
2022-09-01T12:52:26.120Z,101830.38
2022-09-01T12:55:11.318Z,101829.50
2022-09-01T12:57:49.463Z,101820.69
2022-09-01T13:00:21.427Z,101831.25
2022-09-01T13:02:53.389Z,101826.88
2022-09-01T13:05:32.716Z,101826.88
2022-09-01T13:08:07.616Z,101821.59
2022-09-01T13:10:39.545Z,101815.47
2022-09-01T13:13:11.080Z,101814.59
2022-09-01T13:15:45.447Z,101811.09
2022-09-01T13:18:14.075Z,101814.56
2022-09-01T13:20:43.015Z,101810.91
2022-09-01T13:23:12.837Z,101796.81
2022-09-01T13:25:44.363Z,101806.53
2022-09-01T13:28:16.232Z,101800.31
2022-09-01T13:34:37.946Z,101799.50
2022-09-01T13:37:06.844Z,101794.22
2022-09-01T13:39:35.516Z,101802.22
2022-09-01T13:42:04.142Z,101800.47
2022-09-01T13:44:35.394Z,101803.16
2022-09-01T13:50:11.419Z,101804.03
2022-09-01T13:52:43.111Z,101801.38
2022-09-01T13:55:13.943Z,101796.97
2022-09-01T13:57:42.719Z,101796.97
2022-09-01T14:00:17.414Z,101795.22
2022-09-01T14:02:50.316Z,101799.63
2022-09-01T14:05:27.227Z,101789.91
2022-09-01T14:07:56.729Z,101786.41
2022-09-01T14:10:27.134Z,101787.28
2022-09-01T14:12:55.779Z,101784.63
2022-09-01T14:15:27.471Z,101793.44
2022-09-01T14:17:58.094Z,101779.34
2022-09-01T14:20:31.406Z,101781.97
2022-09-01T14:26:53.155Z,101776.69
2022-09-01T14:29:21.883Z,101771.44
2022-09-01T14:31:52.017Z,101775.78
2022-09-01T14:34:20.697Z,101772.28
2022-09-01T14:36:49.764Z,101765.25
2022-09-01T14:39:18.560Z,101755.41
2022-09-01T14:41:47.187Z,101759.72
2022-09-01T14:44:16.114Z,101758.75
2022-09-01T14:46:45.175Z,101754.34
2022-09-01T14:49:21.647Z,101750.88
2022-09-01T14:54:42.496Z,101754.56
2022-09-01T15:00:00.747Z,101755.50
2022-09-01T15:02:33.407Z,101745.75
2022-09-01T15:05:03.584Z,101755.47
2022-09-01T15:07:32.323Z,101753.72
2022-09-01T15:10:01.344Z,101754.59
2022-09-01T15:12:31.889Z,101741.41
2022-09-01T15:15:02.671Z,101740.53
2022-09-01T15:17:31.783Z,101735.25
2022-09-01T15:20:17.289Z,101734.34
2022-09-01T15:22:47.101Z,101738.75
2022-09-01T15:25:15.883Z,101737.91
2022-09-01T15:27:45.937Z,101729.94
2022-09-01T15:30:17.382Z,101738.78
2022-09-01T15:32:48.479Z,101733.47
2022-09-01T15:35:19.012Z,101729.97
2022-09-01T15:37:48.742Z,101731.72
2022-09-01T15:40:19.402Z,101729.06
2022-09-01T15:42:48.923Z,101733.50
2022-09-01T15:45:20.611Z,101731.72
2022-09-01T15:47:49.572Z,101732.59
2022-09-01T15:50:22.300Z,101728.19
2022-09-01T15:52:54.078Z,101729.06
2022-09-01T15:55:25.485Z,101723.81
2022-09-01T15:57:55.400Z,101722.94
2022-09-01T16:00:26.554Z,101722.94
2022-09-01T16:02:56.657Z,101724.69
2022-09-01T16:05:27.388Z,101722.06
2022-09-01T16:10:33.668Z,101728.22
2022-09-01T16:13:05.409Z,101722.03
2022-09-01T16:15:35.313Z,101722.94
2022-09-01T16:18:34.124Z,101728.25
2022-09-01T16:21:14.652Z,101722.06
2022-09-01T16:23:48.821Z,101728.22
2022-09-01T16:26:20.490Z,101729.09
2022-09-01T16:28:51.866Z,101727.34
2022-09-01T16:31:24.987Z,101725.59
2022-09-01T16:33:57.011Z,101726.47
2022-09-01T16:36:36.287Z,101722.06
2022-09-01T16:39:17.902Z,101715.88
2022-09-01T16:41:56.115Z,101715.88
2022-09-01T16:44:36.318Z,101721.16
2022-09-01T16:47:15.960Z,101714.09
2022-09-01T16:49:54.524Z,101708.81
2022-09-01T16:52:29.096Z,101705.25
2022-09-01T16:55:22.827Z,101708.78
2022-09-01T16:58:00.602Z,101710.53
2022-09-01T17:00:39.582Z,101706.13
2022-09-01T17:03:17.185Z,101699.06
2022-09-01T17:05:56.134Z,101696.41
2022-09-01T17:08:31.258Z,101707.81
2022-09-01T17:11:09.739Z,101711.34
2022-09-01T17:13:41.587Z,101706.03
2022-09-01T17:16:12.740Z,101709.53
2022-09-01T17:18:48.335Z,101713.94
2022-09-01T17:21:21.003Z,101711.28
2022-09-01T17:23:56.743Z,101719.19
2022-09-01T17:26:28.075Z,101721.81
2022-09-01T17:29:01.801Z,101722.66
2022-09-01T17:31:46.743Z,101727.91
2022-09-01T17:34:27.609Z,101732.28
2022-09-01T17:37:05.616Z,101734.00
2022-09-01T17:39:49.439Z,101726.97
2022-09-01T17:42:27.554Z,101735.72
2022-09-01T17:44:59.354Z,101735.66
2022-09-01T17:47:37.390Z,101751.44
2022-09-01T17:50:15.256Z,101751.41
2022-09-01T17:52:57.088Z,101754.00
2022-09-01T17:55:43.148Z,101757.44
2022-09-01T17:58:23.267Z,101749.44
2022-09-01T18:00:59.780Z,101753.75
2022-09-01T18:04:06.145Z,101757.25
2022-09-01T18:06:49.672Z,101759.84
2022-09-01T18:09:21.708Z,101763.25
2022-09-01T18:11:56.889Z,101768.53
2022-09-01T18:14:31.202Z,101761.47
2022-09-01T18:17:15.320Z,101760.53
2022-09-01T18:19:53.067Z,101760.47
2022-09-01T18:22:25.814Z,101770.97
2022-09-01T18:24:58.913Z,101774.38
2022-09-01T18:27:33.179Z,101772.56
2022-09-01T18:30:02.761Z,101774.19
2022-09-01T18:32:42.636Z,101775.91
2022-09-01T18:35:30.647Z,101777.63
2022-09-01T18:38:10.733Z,101776.66
2022-09-01T18:40:52.913Z,101780.94
2022-09-01T18:43:31.069Z,101787.91
2022-09-01T18:46:05.120Z,101787.00
2022-09-01T18:48:41.337Z,101785.19
2022-09-01T18:51:18.577Z,101786.91
2022-09-01T18:53:52.306Z,101789.50
2022-09-01T18:56:37.413Z,101790.34
2022-09-01T18:59:34.832Z,101792.06
2022-09-01T19:02:22.869Z,101792.81
2022-09-01T19:04:54.773Z,101789.25
2022-09-01T19:07:30.267Z,101785.72
2022-09-01T19:10:08.160Z,101790.91
2022-09-01T19:12:48.687Z,101796.13
2022-09-01T19:15:25.713Z,101792.56
2022-09-01T19:18:14.431Z,101796.00
2022-09-01T19:20:51.105Z,101795.91
2022-09-01T19:23:26.671Z,101798.44
2022-09-01T19:26:02.634Z,101794.88
2022-09-01T19:28:40.677Z,101794.84
2022-09-01T19:31:22.336Z,101793.91
2022-09-01T19:33:54.216Z,101793.84
2022-09-01T19:36:29.483Z,101798.19
2022-09-01T19:39:10.801Z,101801.75
2022-09-01T19:41:44.766Z,101795.66
2022-09-01T19:44:18.467Z,101795.72
2022-09-01T19:46:52.442Z,101795.72
2022-09-01T19:49:31.299Z,101795.56
2022-09-01T19:52:08.633Z,101800.75
2022-09-01T19:54:47.307Z,101802.38
2022-09-01T19:57:22.139Z,101804.94
2022-09-01T19:59:59.516Z,101798.69
2022-09-01T20:02:33.854Z,101805.56
2022-09-01T20:05:10.651Z,101802.84
2022-09-01T20:07:45.421Z,101800.19
2022-09-01T20:10:23.634Z,101801.00
2022-09-01T20:13:14.858Z,101803.56
2022-09-01T20:15:49.685Z,101803.50
2022-09-01T20:18:25.647Z,101801.63
2022-09-01T20:20:54.320Z,101801.53
2022-09-01T20:23:28.500Z,101807.59
2022-09-01T20:26:00.050Z,101810.13
2022-09-01T20:28:38.941Z,101807.44
2022-09-01T20:31:14.676Z,101814.34
2022-09-01T20:33:48.652Z,101808.13
2022-09-01T20:36:22.423Z,101817.69
2022-09-01T20:39:13.580Z,101806.28
2022-09-01T20:41:49.256Z,101808.84
2022-09-01T20:44:27.620Z,101815.81
2022-09-01T20:46:56.239Z,101811.38
2022-09-01T20:49:26.299Z,101808.72
2022-09-01T20:52:01.286Z,101810.44
2022-09-01T20:54:36.686Z,101810.41
2022-09-01T20:57:19.249Z,101811.25
2022-09-01T20:59:51.242Z,101812.09
2022-09-01T21:02:36.931Z,101816.34
2022-09-01T21:05:24.671Z,101811.97
2022-09-01T21:08:10.007Z,101821.56
2022-09-01T21:10:46.419Z,101824.19
2022-09-01T21:13:25.147Z,101819.72
2022-09-01T21:16:01.222Z,101821.47
2022-09-01T21:18:42.920Z,101822.28
2022-09-01T21:21:24.849Z,101821.44
2022-09-01T21:23:53.558Z,101819.78
2022-09-01T21:26:22.374Z,101821.47
2022-09-01T21:28:54.744Z,101826.69
2022-09-01T21:31:24.253Z,101819.50
2022-09-01T21:33:53.205Z,101822.03
2022-09-01T21:36:23.287Z,101818.50
2022-09-01T21:38:51.892Z,101827.25
2022-09-01T21:41:20.726Z,101824.56
2022-09-01T21:43:50.239Z,101818.44
2022-09-01T21:46:20.419Z,101824.69
2022-09-01T21:48:49.122Z,101818.50
2022-09-01T21:51:18.000Z,101820.16
2022-09-01T21:53:48.053Z,101811.38
2022-09-01T21:56:16.780Z,101815.75
2022-09-01T21:58:45.360Z,101812.16
2022-09-01T22:01:18.873Z,101819.03
2022-09-01T22:03:47.619Z,101814.63
2022-09-01T22:06:16.191Z,101814.59
2022-09-01T22:08:44.803Z,101814.47
2022-09-01T22:11:14.735Z,101808.31
2022-09-01T22:13:43.976Z,101804.78
2022-09-01T22:16:18.649Z,101811.88
2022-09-01T22:18:47.681Z,101814.53
2022-09-01T22:21:17.111Z,101810.25
2022-09-01T22:23:45.980Z,101804.06
2022-09-01T22:26:21.577Z,101811.78
2022-09-01T22:28:50.759Z,101811.63
2022-09-01T22:31:21.977Z,101808.00
2022-09-01T22:33:51.184Z,101805.25
2022-09-01T22:36:25.061Z,101808.81
2022-09-01T22:38:54.088Z,101802.75
2022-09-01T22:41:25.520Z,101811.63
2022-09-01T22:43:54.447Z,101804.59
2022-09-01T22:46:23.261Z,101809.91
2022-09-01T22:48:52.005Z,101808.06
2022-09-01T22:51:20.839Z,101811.28
2022-09-01T22:53:50.486Z,101805.00
2022-09-01T22:56:24.239Z,101806.53
2022-09-01T22:58:55.264Z,101809.06
2022-09-01T23:01:30.127Z,101804.53
2022-09-01T23:04:00.157Z,101811.31
2022-09-01T23:06:30.867Z,101814.59
2022-09-01T23:09:01.148Z,101813.53
2022-09-01T23:11:31.188Z,101801.19
2022-09-01T23:13:59.964Z,101810.84
2022-09-01T23:16:29.094Z,101803.00
2022-09-01T23:18:57.792Z,101802.13
2022-09-01T23:21:34.201Z,101796.75
2022-09-01T23:24:03.291Z,101804.59
2022-09-01T23:26:34.880Z,101804.50
2022-09-01T23:29:04.955Z,101805.41
2022-09-01T23:31:35.972Z,101800.13
2022-09-01T23:34:06.069Z,101800.97
2022-09-01T23:36:35.465Z,101792.16
2022-09-01T23:39:05.054Z,101802.59
2022-09-01T23:41:37.039Z,101795.47
2022-09-01T23:44:09.571Z,101793.78
2022-09-01T23:46:41.727Z,101793.72
2022-09-01T23:49:11.473Z,101788.38
2022-09-01T23:51:41.072Z,101789.28
2022-09-01T23:54:10.137Z,101785.75
2022-09-01T23:56:40.403Z,101782.28
2022-09-01T23:59:09.708Z,101786.78
